Ana Sayfa
METAR-TAF:

METAR-TAF

Havaalanları :

Abidjan, Fildişi Sahili

Enlem: 05-15N, Boylam: 003-56W, yükseklik: 7 m

Güncel hava durumu gözlemi

Rapor saat 01:00 UTC de 18 dakika önce yapıldı.
Rüzgar güneydan 3 kt
Sıcaklık 28°C
Nem 84%
Basınç 1010 hPa
Görüş mesafesi: 8000 m

METAR: DIAP 200100Z 18003KT 8000 NSC 28/25 Q1010 NOSIG

Saat: 01:18 (01:18 UTC)

Tahmin

Rapor saat 23:00 UTC de 2 saat ve 18 dakika önce yapıldı.
Ayın 20'si saat 00 UTC'den ayın 21'si saat 06 UTC'ye kadar geçerli Tahmin
Rüzgar güney/güneydoğudan 4 kt
Görüş mesafesi 10 km veya daha fazla
1200 ft yükseklikte parçalı bulutlu
Olasılık 30% :
Geçici
ayın 20'si saat 05 UTC'den ayın 20'si saat 08 UTC'ye kadar
Görüş mesafesi: 4000 m
Pus
Geçici
ayın 20'si saat 17 UTC'den ayın 20'si saat 21 UTC'ye kadar
1200 ft yükseklikte parçalı çok bulutlu
2000 ft yükseklikte az bulutlu, Kümülonimbus.

TAF: DIAP 192300Z 2000/2106 16004KT 9999 SCT012 PROB30 TEMPO 2005/2008 4000 BR TEMPO 2017/2021 BKN012 FEW020CB

4.000'den fazla havaalanı için hava durumu gözlemleri ve tahminleri (METAR ve TAF raporları).

Kullanılabilir istasyonlar harita üzerinde sarı ve kırmızı noktalarla gösterilir.

İstasyonun adını görmek için fareyi noktanın üzerinde gezdirin.

Sonrasında hava gözlem ve tahminlerini görmek için tıklayın.

Haritayı değiştirmek için: yaklaştırmak için siyah artı işaretli yeşil düğmeye ve uzaklaştırmak için de eksi işaretli düğmeye hızla tıklayın; bitişik haritalar için yeşil okları kullanın.


METAR-TAF: